sensor_id;sensor_type;location;lat;lon;timestamp;P1;durP1;ratioP1;P2;durP2;ratioP2
60502;SDS011;51448;51.660;5.824;2022-10-16T00:01:36;7.43;;;4.00;;
60502;SDS011;51448;51.660;5.824;2022-10-16T00:04:05;9.18;;;3.80;;
60502;SDS011;51448;51.660;5.824;2022-10-16T00:06:32;8.05;;;3.78;;
60502;SDS011;51448;51.660;5.824;2022-10-16T00:09:00;8.73;;;3.70;;
60502;SDS011;51448;51.660;5.824;2022-10-16T00:11:29;7.38;;;3.85;;
60502;SDS011;51448;51.660;5.824;2022-10-16T00:14:01;7.13;;;3.90;;
60502;SDS011;51448;51.660;5.824;2022-10-16T00:19:01;8.20;;;3.53;;
60502;SDS011;51448;51.660;5.824;2022-10-16T00:21:30;8.32;;;4.10;;
60502;SDS011;51448;51.660;5.824;2022-10-16T00:24:03;9.48;;;3.67;;
60502;SDS011;51448;51.660;5.824;2022-10-16T00:26:36;8.70;;;4.03;;
60502;SDS011;51448;51.660;5.824;2022-10-16T00:29:06;7.55;;;3.70;;
60502;SDS011;51448;51.660;5.824;2022-10-16T00:31:34;6.35;;;3.40;;
60502;SDS011;51448;51.660;5.824;2022-10-16T00:34:02;8.57;;;3.78;;
60502;SDS011;51448;51.660;5.824;2022-10-16T00:36:30;10.55;;;3.72;;
60502;SDS011;51448;51.660;5.824;2022-10-16T00:38:58;7.63;;;3.75;;
60502;SDS011;51448;51.660;5.824;2022-10-16T00:41:28;7.32;;;3.58;;
60502;SDS011;51448;51.660;5.824;2022-10-16T00:43:57;6.80;;;3.55;;
60502;SDS011;51448;51.660;5.824;2022-10-16T00:46:35;8.70;;;3.22;;
60502;SDS011;51448;51.660;5.824;2022-10-16T00:49:13;8.07;;;3.28;;
60502;SDS011;51448;51.660;5.824;2022-10-16T00:51:46;8.05;;;3.40;;
60502;SDS011;51448;51.660;5.824;2022-10-16T00:54:19;6.90;;;2.90;;
60502;SDS011;51448;51.660;5.824;2022-10-16T00:56:51;6.00;;;2.83;;
60502;SDS011;51448;51.660;5.824;2022-10-16T00:59:25;7.40;;;3.63;;
60502;SDS011;51448;51.660;5.824;2022-10-16T01:01:57;8.05;;;3.42;;
60502;SDS011;51448;51.660;5.824;2022-10-16T01:04:26;6.38;;;2.97;;
60502;SDS011;51448;51.660;5.824;2022-10-16T01:10:07;6.05;;;2.70;;
60502;SDS011;51448;51.660;5.824;2022-10-16T01:13:04;7.97;;;3.15;;
60502;SDS011;51448;51.660;5.824;2022-10-16T01:15:44;6.25;;;2.58;;
60502;SDS011;51448;51.660;5.824;2022-10-16T01:18:32;6.68;;;2.50;;
60502;SDS011;51448;51.660;5.824;2022-10-16T01:21:10;5.30;;;2.38;;
60502;SDS011;51448;51.660;5.824;2022-10-16T01:24:08;7.65;;;2.40;;
60502;SDS011;51448;51.660;5.824;2022-10-16T01:27:07;6.13;;;2.22;;
60502;SDS011;51448;51.660;5.824;2022-10-16T01:32:42;6.53;;;2.45;;
60502;SDS011;51448;51.660;5.824;2022-10-16T01:38:18;7.03;;;2.55;;
60502;SDS011;51448;51.660;5.824;2022-10-16T01:41:00;6.32;;;2.33;;
60502;SDS011;51448;51.660;5.824;2022-10-16T01:43:40;5.57;;;2.65;;
60502;SDS011;51448;51.660;5.824;2022-10-16T01:46:16;8.13;;;2.75;;
60502;SDS011;51448;51.660;5.824;2022-10-16T01:48:48;6.15;;;2.75;;
60502;SDS011;51448;51.660;5.824;2022-10-16T01:51:17;9.35;;;2.80;;
60502;SDS011;51448;51.660;5.824;2022-10-16T01:53:49;5.75;;;2.45;;
60502;SDS011;51448;51.660;5.824;2022-10-16T01:56:22;6.22;;;2.53;;
60502;SDS011;51448;51.660;5.824;2022-10-16T01:58:55;4.90;;;2.58;;
60502;SDS011;51448;51.660;5.824;2022-10-16T02:01:31;9.60;;;2.70;;
60502;SDS011;51448;51.660;5.824;2022-10-16T02:04:04;5.77;;;2.43;;
60502;SDS011;51448;51.660;5.824;2022-10-16T02:06:41;5.53;;;2.30;;
60502;SDS011;51448;51.660;5.824;2022-10-16T02:09:09;7.25;;;2.30;;
60502;SDS011;51448;51.660;5.824;2022-10-16T02:11:37;6.38;;;2.40;;
60502;SDS011;51448;51.660;5.824;2022-10-16T02:14:05;7.63;;;2.38;;
60502;SDS011;51448;51.660;5.824;2022-10-16T02:16:38;6.00;;;2.30;;
60502;SDS011;51448;51.660;5.824;2022-10-16T02:19:14;5.07;;;1.90;;
60502;SDS011;51448;51.660;5.824;2022-10-16T02:21:54;5.93;;;2.00;;
60502;SDS011;51448;51.660;5.824;2022-10-16T02:27:49;7.22;;;2.15;;
60502;SDS011;51448;51.660;5.824;2022-10-16T02:30:33;5.82;;;1.98;;
60502;SDS011;51448;51.660;5.824;2022-10-16T02:33:15;5.82;;;2.00;;
60502;SDS011;51448;51.660;5.824;2022-10-16T02:35:46;5.45;;;2.10;;
60502;SDS011;51448;51.660;5.824;2022-10-16T02:40:47;6.30;;;2.00;;
60502;SDS011;51448;51.660;5.824;2022-10-16T02:43:14;4.43;;;1.77;;
60502;SDS011;51448;51.660;5.824;2022-10-16T02:45:43;5.20;;;2.10;;
60502;SDS011;51448;51.660;5.824;2022-10-16T02:48:10;6.80;;;2.00;;
60502;SDS011;51448;51.660;5.824;2022-10-16T02:50:38;3.97;;;1.70;;
60502;SDS011;51448;51.660;5.824;2022-10-16T02:53:05;4.53;;;1.75;;
60502;SDS011;51448;51.660;5.824;2022-10-16T02:55:33;6.03;;;2.05;;
60502;SDS011;51448;51.660;5.824;2022-10-16T02:58:00;6.13;;;2.00;;
60502;SDS011;51448;51.660;5.824;2022-10-16T03:00:27;5.85;;;1.60;;
60502;SDS011;51448;51.660;5.824;2022-10-16T03:02:55;5.53;;;1.60;;
60502;SDS011;51448;51.660;5.824;2022-10-16T03:05:23;4.95;;;2.03;;
60502;SDS011;51448;51.660;5.824;2022-10-16T03:07:50;5.25;;;1.92;;
60502;SDS011;51448;51.660;5.824;2022-10-16T03:10:19;5.15;;;1.92;;
60502;SDS011;51448;51.660;5.824;2022-10-16T03:12:47;3.95;;;2.00;;
60502;SDS011;51448;51.660;5.824;2022-10-16T03:15:14;11.27;;;2.10;;
60502;SDS011;51448;51.660;5.824;2022-10-16T03:17:42;3.97;;;1.88;;
60502;SDS011;51448;51.660;5.824;2022-10-16T03:20:10;4.85;;;1.90;;
60502;SDS011;51448;51.660;5.824;2022-10-16T03:22:37;5.70;;;2.00;;
60502;SDS011;51448;51.660;5.824;2022-10-16T03:25:05;4.88;;;1.90;;
60502;SDS011;51448;51.660;5.824;2022-10-16T03:27:33;4.97;;;1.90;;
60502;SDS011;51448;51.660;5.824;2022-10-16T03:30:00;8.27;;;2.20;;
60502;SDS011;51448;51.660;5.824;2022-10-16T03:32:27;5.47;;;1.95;;
60502;SDS011;51448;51.660;5.824;2022-10-16T03:34:55;3.85;;;1.70;;
60502;SDS011;51448;51.660;5.824;2022-10-16T03:37:24;4.95;;;2.08;;
60502;SDS011;51448;51.660;5.824;2022-10-16T03:39:52;6.03;;;2.35;;
60502;SDS011;51448;51.660;5.824;2022-10-16T03:42:19;5.18;;;2.10;;
60502;SDS011;51448;51.660;5.824;2022-10-16T03:44:47;5.47;;;1.90;;
60502;SDS011;51448;51.660;5.824;2022-10-16T03:47:14;7.40;;;2.00;;
60502;SDS011;51448;51.660;5.824;2022-10-16T03:49:41;5.40;;;2.15;;
60502;SDS011;51448;51.660;5.824;2022-10-16T03:52:09;5.47;;;2.15;;
60502;SDS011;51448;51.660;5.824;2022-10-16T03:54:37;6.25;;;2.13;;
60502;SDS011;51448;51.660;5.824;2022-10-16T03:57:04;4.05;;;1.85;;
60502;SDS011;51448;51.660;5.824;2022-10-16T03:59:32;3.95;;;1.95;;
60502;SDS011;51448;51.660;5.824;2022-10-16T04:01:59;3.88;;;1.70;;
60502;SDS011;51448;51.660;5.824;2022-10-16T04:04:26;4.88;;;1.75;;
60502;SDS011;51448;51.660;5.824;2022-10-16T04:06:54;7.47;;;2.10;;
60502;SDS011;51448;51.660;5.824;2022-10-16T04:09:21;5.85;;;1.88;;
60502;SDS011;51448;51.660;5.824;2022-10-16T04:11:49;6.03;;;2.10;;
60502;SDS011;51448;51.660;5.824;2022-10-16T04:14:16;8.63;;;2.38;;
60502;SDS011;51448;51.660;5.824;2022-10-16T04:16:43;6.10;;;2.03;;
60502;SDS011;51448;51.660;5.824;2022-10-16T04:19:11;6.47;;;1.70;;
60502;SDS011;51448;51.660;5.824;2022-10-16T04:21:38;5.25;;;2.10;;
60502;SDS011;51448;51.660;5.824;2022-10-16T04:24:06;4.60;;;1.60;;
60502;SDS011;51448;51.660;5.824;2022-10-16T04:26:33;7.18;;;1.98;;
60502;SDS011;51448;51.660;5.824;2022-10-16T04:29:01;4.70;;;1.83;;
60502;SDS011;51448;51.660;5.824;2022-10-16T04:31:28;5.30;;;1.75;;
60502;SDS011;51448;51.660;5.824;2022-10-16T04:33:56;4.50;;;1.52;;
60502;SDS011;51448;51.660;5.824;2022-10-16T04:36:23;5.57;;;1.80;;
60502;SDS011;51448;51.660;5.824;2022-10-16T04:38:55;4.32;;;1.63;;
60502;SDS011;51448;51.660;5.824;2022-10-16T04:41:22;4.78;;;1.77;;
60502;SDS011;51448;51.660;5.824;2022-10-16T04:43:50;6.85;;;2.13;;
60502;SDS011;51448;51.660;5.824;2022-10-16T04:46:17;5.07;;;1.80;;
60502;SDS011;51448;51.660;5.824;2022-10-16T04:48:44;5.93;;;2.00;;
60502;SDS011;51448;51.660;5.824;2022-10-16T04:51:13;4.68;;;1.80;;
60502;SDS011;51448;51.660;5.824;2022-10-16T04:53:41;6.18;;;2.20;;
60502;SDS011;51448;51.660;5.824;2022-10-16T04:56:08;5.55;;;2.00;;
60502;SDS011;51448;51.660;5.824;2022-10-16T04:58:35;8.55;;;1.88;;
60502;SDS011;51448;51.660;5.824;2022-10-16T05:01:03;5.30;;;1.60;;
60502;SDS011;51448;51.660;5.824;2022-10-16T05:03:30;4.65;;;2.00;;
60502;SDS011;51448;51.660;5.824;2022-10-16T05:05:58;5.93;;;1.75;;
60502;SDS011;51448;51.660;5.824;2022-10-16T05:08:25;6.15;;;2.00;;
60502;SDS011;51448;51.660;5.824;2022-10-16T05:10:53;5.88;;;2.00;;
60502;SDS011;51448;51.660;5.824;2022-10-16T05:13:20;8.10;;;2.05;;
60502;SDS011;51448;51.660;5.824;2022-10-16T05:15:48;6.85;;;2.00;;
60502;SDS011;51448;51.660;5.824;2022-10-16T05:18:16;6.65;;;2.10;;
60502;SDS011;51448;51.660;5.824;2022-10-16T05:20:43;9.40;;;2.05;;
60502;SDS011;51448;51.660;5.824;2022-10-16T05:23:11;4.20;;;1.80;;
60502;SDS011;51448;51.660;5.824;2022-10-16T05:25:39;7.28;;;2.03;;
60502;SDS011;51448;51.660;5.824;2022-10-16T05:28:06;4.97;;;2.00;;
60502;SDS011;51448;51.660;5.824;2022-10-16T05:30:34;4.53;;;1.92;;
60502;SDS011;51448;51.660;5.824;2022-10-16T05:33:04;6.43;;;2.10;;
60502;SDS011;51448;51.660;5.824;2022-10-16T05:35:31;5.35;;;1.83;;
60502;SDS011;51448;51.660;5.824;2022-10-16T05:38:00;5.35;;;1.83;;
60502;SDS011;51448;51.660;5.824;2022-10-16T05:40:28;5.00;;;1.83;;
60502;SDS011;51448;51.660;5.824;2022-10-16T05:42:55;6.28;;;1.90;;
60502;SDS011;51448;51.660;5.824;2022-10-16T05:45:23;5.72;;;1.65;;
60502;SDS011;51448;51.660;5.824;2022-10-16T05:47:50;5.93;;;1.80;;
60502;SDS011;51448;51.660;5.824;2022-10-16T05:50:18;6.80;;;1.92;;
60502;SDS011;51448;51.660;5.824;2022-10-16T05:52:45;6.60;;;2.08;;
60502;SDS011;51448;51.660;5.824;2022-10-16T05:55:13;5.40;;;1.83;;
60502;SDS011;51448;51.660;5.824;2022-10-16T05:57:40;5.88;;;2.20;;
60502;SDS011;51448;51.660;5.824;2022-10-16T06:00:07;4.57;;;1.80;;
60502;SDS011;51448;51.660;5.824;2022-10-16T06:02:39;5.18;;;1.70;;
60502;SDS011;51448;51.660;5.824;2022-10-16T06:05:06;6.15;;;2.08;;
60502;SDS011;51448;51.660;5.824;2022-10-16T06:07:34;5.88;;;2.10;;
60502;SDS011;51448;51.660;5.824;2022-10-16T06:10:03;5.90;;;2.00;;
60502;SDS011;51448;51.660;5.824;2022-10-16T06:12:31;4.65;;;2.17;;
60502;SDS011;51448;51.660;5.824;2022-10-16T06:14:59;5.82;;;1.92;;
60502;SDS011;51448;51.660;5.824;2022-10-16T06:17:26;7.97;;;2.20;;
60502;SDS011;51448;51.660;5.824;2022-10-16T06:19:54;5.97;;;2.00;;
60502;SDS011;51448;51.660;5.824;2022-10-16T06:22:21;5.10;;;2.25;;
60502;SDS011;51448;51.660;5.824;2022-10-16T06:24:49;7.18;;;2.28;;
60502;SDS011;51448;51.660;5.824;2022-10-16T06:27:16;5.10;;;2.05;;
60502;SDS011;51448;51.660;5.824;2022-10-16T06:29:44;6.50;;;2.13;;
60502;SDS011;51448;51.660;5.824;2022-10-16T06:32:12;5.70;;;2.25;;
60502;SDS011;51448;51.660;5.824;2022-10-16T06:34:39;5.45;;;2.08;;
60502;SDS011;51448;51.660;5.824;2022-10-16T06:37:10;5.47;;;2.13;;
60502;SDS011;51448;51.660;5.824;2022-10-16T06:39:37;5.82;;;2.17;;
60502;SDS011;51448;51.660;5.824;2022-10-16T06:42:04;7.70;;;2.15;;
60502;SDS011;51448;51.660;5.824;2022-10-16T06:44:35;4.80;;;2.00;;
60502;SDS011;51448;51.660;5.824;2022-10-16T06:47:02;6.82;;;2.25;;
60502;SDS011;51448;51.660;5.824;2022-10-16T06:49:30;6.55;;;2.10;;
60502;SDS011;51448;51.660;5.824;2022-10-16T06:51:58;6.40;;;2.30;;
60502;SDS011;51448;51.660;5.824;2022-10-16T06:54:25;5.95;;;2.53;;
60502;SDS011;51448;51.660;5.824;2022-10-16T06:56:52;5.28;;;2.40;;
60502;SDS011;51448;51.660;5.824;2022-10-16T06:59:21;6.95;;;2.28;;
60502;SDS011;51448;51.660;5.824;2022-10-16T07:01:49;5.93;;;2.10;;
60502;SDS011;51448;51.660;5.824;2022-10-16T07:04:16;7.40;;;2.30;;
60502;SDS011;51448;51.660;5.824;2022-10-16T07:06:46;6.30;;;2.33;;
60502;SDS011;51448;51.660;5.824;2022-10-16T07:09:14;7.10;;;2.70;;
60502;SDS011;51448;51.660;5.824;2022-10-16T07:11:41;6.35;;;2.50;;
60502;SDS011;51448;51.660;5.824;2022-10-16T07:14:19;6.97;;;2.50;;
60502;SDS011;51448;51.660;5.824;2022-10-16T07:16:48;5.72;;;2.40;;
60502;SDS011;51448;51.660;5.824;2022-10-16T07:19:16;6.05;;;2.40;;
60502;SDS011;51448;51.660;5.824;2022-10-16T07:21:44;5.65;;;2.55;;
60502;SDS011;51448;51.660;5.824;2022-10-16T07:24:13;7.13;;;2.22;;
60502;SDS011;51448;51.660;5.824;2022-10-16T07:26:44;4.78;;;2.50;;
60502;SDS011;51448;51.660;5.824;2022-10-16T07:29:14;5.00;;;2.33;;
60502;SDS011;51448;51.660;5.824;2022-10-16T07:31:45;6.50;;;2.45;;
60502;SDS011;51448;51.660;5.824;2022-10-16T07:34:15;5.53;;;2.30;;
60502;SDS011;51448;51.660;5.824;2022-10-16T07:36:47;8.93;;;2.53;;
60502;SDS011;51448;51.660;5.824;2022-10-16T07:39:17;5.65;;;2.50;;
60502;SDS011;51448;51.660;5.824;2022-10-16T07:41:44;7.65;;;2.55;;
60502;SDS011;51448;51.660;5.824;2022-10-16T07:44:12;5.70;;;2.65;;
60502;SDS011;51448;51.660;5.824;2022-10-16T07:46:39;6.22;;;2.10;;
60502;SDS011;51448;51.660;5.824;2022-10-16T07:49:07;7.75;;;3.08;;
60502;SDS011;51448;51.660;5.824;2022-10-16T07:51:35;6.80;;;2.47;;
60502;SDS011;51448;51.660;5.824;2022-10-16T07:54:03;7.00;;;2.55;;
60502;SDS011;51448;51.660;5.824;2022-10-16T07:56:30;7.88;;;2.28;;
60502;SDS011;51448;51.660;5.824;2022-10-16T07:58:59;5.50;;;2.45;;
60502;SDS011;51448;51.660;5.824;2022-10-16T08:01:26;6.95;;;2.25;;
60502;SDS011;51448;51.660;5.824;2022-10-16T08:03:54;7.25;;;2.22;;
60502;SDS011;51448;51.660;5.824;2022-10-16T08:06:22;8.07;;;2.30;;
60502;SDS011;51448;51.660;5.824;2022-10-16T08:08:54;8.27;;;2.00;;
60502;SDS011;51448;51.660;5.824;2022-10-16T08:11:23;4.05;;;1.95;;
60502;SDS011;51448;51.660;5.824;2022-10-16T08:13:50;9.55;;;1.95;;
60502;SDS011;51448;51.660;5.824;2022-10-16T08:16:18;6.13;;;1.85;;
60502;SDS011;51448;51.660;5.824;2022-10-16T08:18:45;6.93;;;2.10;;
60502;SDS011;51448;51.660;5.824;2022-10-16T08:21:14;8.43;;;1.92;;
60502;SDS011;51448;51.660;5.824;2022-10-16T08:23:47;5.63;;;2.00;;
60502;SDS011;51448;51.660;5.824;2022-10-16T08:26:24;7.55;;;1.73;;
60502;SDS011;51448;51.660;5.824;2022-10-16T08:28:54;6.60;;;1.92;;
60502;SDS011;51448;51.660;5.824;2022-10-16T08:31:23;9.45;;;2.22;;
60502;SDS011;51448;51.660;5.824;2022-10-16T08:33:51;7.13;;;1.65;;
60502;SDS011;51448;51.660;5.824;2022-10-16T08:36:19;5.18;;;1.70;;
60502;SDS011;51448;51.660;5.824;2022-10-16T08:38:47;7.18;;;2.10;;
60502;SDS011;51448;51.660;5.824;2022-10-16T08:41:26;6.90;;;1.92;;
60502;SDS011;51448;51.660;5.824;2022-10-16T08:44:24;6.25;;;1.60;;
60502;SDS011;51448;51.660;5.824;2022-10-16T08:47:18;7.43;;;1.92;;
60502;SDS011;51448;51.660;5.824;2022-10-16T08:52:29;5.70;;;1.83;;
60502;SDS011;51448;51.660;5.824;2022-10-16T08:55:03;10.38;;;1.88;;
60502;SDS011;51448;51.660;5.824;2022-10-16T08:57:31;8.10;;;2.00;;
60502;SDS011;51448;51.660;5.824;2022-10-16T09:00:00;5.28;;;1.67;;
60502;SDS011;51448;51.660;5.824;2022-10-16T09:02:53;5.75;;;1.85;;
60502;SDS011;51448;51.660;5.824;2022-10-16T09:14:49;6.45;;;2.42;;
60502;SDS011;51448;51.660;5.824;2022-10-16T09:17:45;6.03;;;2.03;;
60502;SDS011;51448;51.660;5.824;2022-10-16T09:20:56;6.18;;;1.98;;
60502;SDS011;51448;51.660;5.824;2022-10-16T09:23:36;7.57;;;1.92;;
60502;SDS011;51448;51.660;5.824;2022-10-16T09:26:05;8.30;;;2.25;;
60502;SDS011;51448;51.660;5.824;2022-10-16T09:28:38;6.63;;;1.90;;
60502;SDS011;51448;51.660;5.824;2022-10-16T09:31:17;7.68;;;1.88;;
60502;SDS011;51448;51.660;5.824;2022-10-16T09:33:51;7.07;;;1.90;;
60502;SDS011;51448;51.660;5.824;2022-10-16T09:36:25;6.68;;;2.03;;
60502;SDS011;51448;51.660;5.824;2022-10-16T09:39:06;6.25;;;1.73;;
60502;SDS011;51448;51.660;5.824;2022-10-16T09:41:41;8.32;;;2.30;;
60502;SDS011;51448;51.660;5.824;2022-10-16T09:44:23;5.78;;;2.10;;
60502;SDS011;51448;51.660;5.824;2022-10-16T09:47:02;8.35;;;2.00;;
60502;SDS011;51448;51.660;5.824;2022-10-16T09:49:55;7.28;;;2.30;;
60502;SDS011;51448;51.660;5.824;2022-10-16T09:52:31;9.25;;;2.20;;
60502;SDS011;51448;51.660;5.824;2022-10-16T09:55:00;6.90;;;1.65;;
60502;SDS011;51448;51.660;5.824;2022-10-16T09:57:50;7.85;;;1.88;;
60502;SDS011;51448;51.660;5.824;2022-10-16T10:00:19;7.15;;;1.80;;
60502;SDS011;51448;51.660;5.824;2022-10-16T10:02:50;7.47;;;1.55;;
60502;SDS011;51448;51.660;5.824;2022-10-16T10:05:26;6.30;;;1.70;;
60502;SDS011;51448;51.660;5.824;2022-10-16T10:07:57;5.50;;;1.23;;
60502;SDS011;51448;51.660;5.824;2022-10-16T10:12:57;6.35;;;2.08;;
60502;SDS011;51448;51.660;5.824;2022-10-16T10:15:25;6.15;;;1.70;;
60502;SDS011;51448;51.660;5.824;2022-10-16T10:18:01;8.07;;;1.70;;
60502;SDS011;51448;51.660;5.824;2022-10-16T10:20:31;13.70;;;1.80;;
60502;SDS011;51448;51.660;5.824;2022-10-16T10:23:22;10.43;;;2.17;;
60502;SDS011;51448;51.660;5.824;2022-10-16T10:25:54;11.32;;;1.92;;
60502;SDS011;51448;51.660;5.824;2022-10-16T10:28:59;10.68;;;1.88;;
60502;SDS011;51448;51.660;5.824;2022-10-16T10:40:15;9.30;;;2.17;;
60502;SDS011;51448;51.660;5.824;2022-10-16T10:43:14;10.15;;;2.15;;
60502;SDS011;51448;51.660;5.824;2022-10-16T10:46:06;14.00;;;2.50;;
60502;SDS011;51448;51.660;5.824;2022-10-16T10:52:02;17.25;;;2.35;;
60502;SDS011;51448;51.660;5.824;2022-10-16T10:55:19;8.95;;;1.73;;
60502;SDS011;51448;51.660;5.824;2022-10-16T11:01:15;10.68;;;2.60;;
60502;SDS011;51448;51.660;5.824;2022-10-16T11:07:44;10.65;;;2.45;;
60502;SDS011;51448;51.660;5.824;2022-10-16T11:13:20;14.48;;;2.45;;
60502;SDS011;51448;51.660;5.824;2022-10-16T11:16:17;11.98;;;2.63;;
60502;SDS011;51448;51.660;5.824;2022-10-16T11:21:51;12.18;;;2.63;;
60502;SDS011;51448;51.660;5.824;2022-10-16T11:24:35;8.70;;;1.90;;
60502;SDS011;51448;51.660;5.824;2022-10-16T11:27:18;10.50;;;1.67;;
60502;SDS011;51448;51.660;5.824;2022-10-16T11:29:58;11.85;;;1.88;;
60502;SDS011;51448;51.660;5.824;2022-10-16T11:32:33;10.77;;;1.95;;
60502;SDS011;51448;51.660;5.824;2022-10-16T11:35:21;9.02;;;2.05;;
60502;SDS011;51448;51.660;5.824;2022-10-16T11:38:00;8.45;;;2.03;;
60502;SDS011;51448;51.660;5.824;2022-10-16T11:40:39;11.48;;;2.70;;
60502;SDS011;51448;51.660;5.824;2022-10-16T11:43:20;11.25;;;1.70;;
60502;SDS011;51448;51.660;5.824;2022-10-16T11:46:02;11.52;;;2.30;;
60502;SDS011;51448;51.660;5.824;2022-10-16T11:48:45;11.75;;;2.08;;
60502;SDS011;51448;51.660;5.824;2022-10-16T11:56:59;8.60;;;1.88;;
60502;SDS011;51448;51.660;5.824;2022-10-16T11:59:47;12.57;;;1.90;;
60502;SDS011;51448;51.660;5.824;2022-10-16T12:08:13;8.52;;;1.92;;
60502;SDS011;51448;51.660;5.824;2022-10-16T12:10:44;11.32;;;2.50;;
60502;SDS011;51448;51.660;5.824;2022-10-16T12:16:06;8.88;;;1.48;;
60502;SDS011;51448;51.660;5.824;2022-10-16T12:18:40;9.55;;;1.73;;
60502;SDS011;51448;51.660;5.824;2022-10-16T12:21:11;12.55;;;2.33;;
60502;SDS011;51448;51.660;5.824;2022-10-16T12:23:52;10.18;;;2.53;;
60502;SDS011;51448;51.660;5.824;2022-10-16T12:26:30;10.77;;;2.45;;
60502;SDS011;51448;51.660;5.824;2022-10-16T12:35:20;9.68;;;1.77;;
60502;SDS011;51448;51.660;5.824;2022-10-16T12:37:52;11.98;;;2.53;;
60502;SDS011;51448;51.660;5.824;2022-10-16T12:42:56;10.68;;;2.40;;
60502;SDS011;51448;51.660;5.824;2022-10-16T12:45:33;11.82;;;2.30;;
60502;SDS011;51448;51.660;5.824;2022-10-16T12:48:02;9.43;;;2.67;;
60502;SDS011;51448;51.660;5.824;2022-10-16T12:50:46;10.30;;;2.22;;
60502;SDS011;51448;51.660;5.824;2022-10-16T12:53:20;9.90;;;2.00;;
60502;SDS011;51448;51.660;5.824;2022-10-16T13:01:54;9.68;;;1.90;;
60502;SDS011;51448;51.660;5.824;2022-10-16T13:04:39;9.77;;;2.03;;
60502;SDS011;51448;51.660;5.824;2022-10-16T13:13:46;13.73;;;1.80;;
60502;SDS011;51448;51.660;5.824;2022-10-16T13:16:30;8.00;;;1.30;;
60502;SDS011;51448;51.660;5.824;2022-10-16T13:19:18;7.90;;;1.73;;
60502;SDS011;51448;51.660;5.824;2022-10-16T13:22:39;9.45;;;1.80;;
60502;SDS011;51448;51.660;5.824;2022-10-16T13:25:15;7.05;;;1.35;;
60502;SDS011;51448;51.660;5.824;2022-10-16T13:28:00;7.13;;;1.40;;
60502;SDS011;51448;51.660;5.824;2022-10-16T13:30:42;8.88;;;1.75;;
60502;SDS011;51448;51.660;5.824;2022-10-16T13:33:20;5.25;;;1.20;;
60502;SDS011;51448;51.660;5.824;2022-10-16T13:35:59;6.82;;;1.63;;
60502;SDS011;51448;51.660;5.824;2022-10-16T13:38:29;7.82;;;1.85;;
60502;SDS011;51448;51.660;5.824;2022-10-16T13:41:12;6.00;;;1.13;;
60502;SDS011;51448;51.660;5.824;2022-10-16T13:46:16;7.22;;;1.10;;
60502;SDS011;51448;51.660;5.824;2022-10-16T13:49:05;7.03;;;1.38;;
60502;SDS011;51448;51.660;5.824;2022-10-16T13:51:41;8.65;;;1.50;;
60502;SDS011;51448;51.660;5.824;2022-10-16T13:54:21;6.07;;;1.27;;
60502;SDS011;51448;51.660;5.824;2022-10-16T13:56:51;9.45;;;1.77;;
60502;SDS011;51448;51.660;5.824;2022-10-16T13:59:36;5.85;;;1.63;;
60502;SDS011;51448;51.660;5.824;2022-10-16T14:02:08;6.20;;;1.60;;
60502;SDS011;51448;51.660;5.824;2022-10-16T14:04:55;5.38;;;1.42;;
60502;SDS011;51448;51.660;5.824;2022-10-16T14:07:26;8.68;;;1.50;;
60502;SDS011;51448;51.660;5.824;2022-10-16T14:10:00;9.75;;;1.65;;
60502;SDS011;51448;51.660;5.824;2022-10-16T14:12:33;8.25;;;1.40;;
60502;SDS011;51448;51.660;5.824;2022-10-16T14:15:02;8.02;;;1.73;;
60502;SDS011;51448;51.660;5.824;2022-10-16T14:17:33;7.97;;;1.60;;
60502;SDS011;51448;51.660;5.824;2022-10-16T14:20:04;9.63;;;1.50;;
60502;SDS011;51448;51.660;5.824;2022-10-16T14:22:40;7.87;;;1.67;;
60502;SDS011;51448;51.660;5.824;2022-10-16T14:28:04;7.50;;;1.52;;
60502;SDS011;51448;51.660;5.824;2022-10-16T14:30:52;5.05;;;1.23;;
60502;SDS011;51448;51.660;5.824;2022-10-16T14:33:20;7.18;;;1.60;;
60502;SDS011;51448;51.660;5.824;2022-10-16T14:36:02;6.18;;;1.45;;
60502;SDS011;51448;51.660;5.824;2022-10-16T14:41:47;7.07;;;1.35;;
60502;SDS011;51448;51.660;5.824;2022-10-16T14:44:17;7.95;;;1.60;;
60502;SDS011;51448;51.660;5.824;2022-10-16T14:46:50;9.35;;;1.30;;
60502;SDS011;51448;51.660;5.824;2022-10-16T14:49:18;6.65;;;1.40;;
60502;SDS011;51448;51.660;5.824;2022-10-16T14:51:48;6.50;;;1.23;;
60502;SDS011;51448;51.660;5.824;2022-10-16T14:54:17;8.07;;;1.80;;
60502;SDS011;51448;51.660;5.824;2022-10-16T14:56:50;5.35;;;1.38;;
60502;SDS011;51448;51.660;5.824;2022-10-16T14:59:32;5.97;;;1.40;;
60502;SDS011;51448;51.660;5.824;2022-10-16T15:04:55;8.00;;;1.38;;
60502;SDS011;51448;51.660;5.824;2022-10-16T15:07:24;6.65;;;1.38;;
60502;SDS011;51448;51.660;5.824;2022-10-16T15:09:53;6.68;;;1.73;;
60502;SDS011;51448;51.660;5.824;2022-10-16T15:12:20;5.72;;;1.35;;
60502;SDS011;51448;51.660;5.824;2022-10-16T15:14:48;6.85;;;1.38;;
60502;SDS011;51448;51.660;5.824;2022-10-16T15:17:15;8.98;;;1.58;;
60502;SDS011;51448;51.660;5.824;2022-10-16T15:19:47;7.93;;;1.52;;
60502;SDS011;51448;51.660;5.824;2022-10-16T15:22:15;7.93;;;1.40;;
60502;SDS011;51448;51.660;5.824;2022-10-16T15:24:42;6.75;;;1.27;;
60502;SDS011;51448;51.660;5.824;2022-10-16T15:27:10;5.45;;;1.55;;
60502;SDS011;51448;51.660;5.824;2022-10-16T15:29:38;6.72;;;1.50;;
60502;SDS011;51448;51.660;5.824;2022-10-16T15:32:05;6.80;;;1.40;;
60502;SDS011;51448;51.660;5.824;2022-10-16T15:34:32;11.05;;;1.63;;
60502;SDS011;51448;51.660;5.824;2022-10-16T15:37:02;6.50;;;1.85;;
60502;SDS011;51448;51.660;5.824;2022-10-16T15:39:31;6.70;;;1.63;;
60502;SDS011;51448;51.660;5.824;2022-10-16T15:41:58;6.13;;;1.48;;
60502;SDS011;51448;51.660;5.824;2022-10-16T15:44:25;5.78;;;1.10;;
60502;SDS011;51448;51.660;5.824;2022-10-16T15:46:56;6.53;;;1.60;;
60502;SDS011;51448;51.660;5.824;2022-10-16T15:49:24;6.30;;;1.55;;
60502;SDS011;51448;51.660;5.824;2022-10-16T15:51:51;5.28;;;1.40;;
60502;SDS011;51448;51.660;5.824;2022-10-16T15:54:20;8.70;;;1.40;;
60502;SDS011;51448;51.660;5.824;2022-10-16T15:56:49;7.05;;;1.50;;
60502;SDS011;51448;51.660;5.824;2022-10-16T15:59:20;5.13;;;1.17;;
60502;SDS011;51448;51.660;5.824;2022-10-16T16:01:47;5.78;;;1.48;;
60502;SDS011;51448;51.660;5.824;2022-10-16T16:04:15;7.03;;;1.50;;
60502;SDS011;51448;51.660;5.824;2022-10-16T16:07:04;7.03;;;1.73;;
60502;SDS011;51448;51.660;5.824;2022-10-16T16:09:34;11.95;;;2.17;;
60502;SDS011;51448;51.660;5.824;2022-10-16T16:12:01;3.83;;;1.33;;
60502;SDS011;51448;51.660;5.824;2022-10-16T16:14:29;4.30;;;1.20;;
60502;SDS011;51448;51.660;5.824;2022-10-16T16:16:56;5.30;;;1.38;;
60502;SDS011;51448;51.660;5.824;2022-10-16T16:19:25;5.75;;;1.85;;
60502;SDS011;51448;51.660;5.824;2022-10-16T16:21:52;4.78;;;1.52;;
60502;SDS011;51448;51.660;5.824;2022-10-16T16:24:19;6.03;;;2.25;;
60502;SDS011;51448;51.660;5.824;2022-10-16T16:26:47;7.05;;;1.92;;
60502;SDS011;51448;51.660;5.824;2022-10-16T16:29:15;9.32;;;1.90;;
60502;SDS011;51448;51.660;5.824;2022-10-16T16:31:43;6.15;;;1.67;;
60502;SDS011;51448;51.660;5.824;2022-10-16T16:34:11;7.78;;;1.95;;
60502;SDS011;51448;51.660;5.824;2022-10-16T16:36:38;6.60;;;1.60;;
60502;SDS011;51448;51.660;5.824;2022-10-16T16:39:07;6.30;;;1.58;;
60502;SDS011;51448;51.660;5.824;2022-10-16T16:41:34;6.00;;;1.73;;
60502;SDS011;51448;51.660;5.824;2022-10-16T16:44:03;4.30;;;1.50;;
60502;SDS011;51448;51.660;5.824;2022-10-16T16:46:33;6.72;;;1.58;;
60502;SDS011;51448;51.660;5.824;2022-10-16T16:49:03;6.13;;;1.80;;
60502;SDS011;51448;51.660;5.824;2022-10-16T16:51:31;5.60;;;1.90;;
60502;SDS011;51448;51.660;5.824;2022-10-16T16:54:06;6.20;;;1.60;;
60502;SDS011;51448;51.660;5.824;2022-10-16T16:56:36;8.13;;;2.13;;
60502;SDS011;51448;51.660;5.824;2022-10-16T16:59:04;8.00;;;2.13;;
60502;SDS011;51448;51.660;5.824;2022-10-16T17:01:31;7.95;;;2.10;;